This is the latest recevied weather packets stored in our database for station/object AD4CG. If no packets are shown the sender has not sent any weather packets the latest 10 day(s).
| Time | Temp. | Humidity | Pressure | Rain* | Wind** | Luminosity | Snow |
|---|---|---|---|---|---|---|---|
| 1777178562 | 17.22° C | 100% | 1011.9 hPa | 0.25 mm | - | - | - |
| 1777177926 | 17.22° C | 100% | 1012.5 hPa | 0 mm | - | - | - |
| 1777175112 | 17.22° C | 100% | 1011.9 hPa | 0 mm | - | - | - |
| 1777173854 | 17.78° C | 100% | 1011.9 hPa | 0 mm | - | - | - |
| 1777172594 | 17.78° C | 100% | 1011.9 hPa | 0 mm | - | - | - |
| 1777168850 | 17.78° C | 100% | 1011.9 hPa | 1.52 mm | - | - | - |
| 1777166971 | 18.33° C | 100% | 1011.9 hPa | 1.02 mm | - | - | - |
| 1777164177 | 21.11° C | 79% | 1011.2 hPa | 0 mm | - | - | - |
| 1777163227 | 22.22° C | 73% | 1010.8 hPa | 0 mm | - | - | - |
| 1777158848 | 26.11° C | 43% | 1007.8 hPa | 0 mm | - | - | - |
| 1777157282 | 26.67° C | 13% | 1007.8 hPa | 0 mm | - | - | - |
| 1777156341 | 27.78° C | 9% | 1007.5 hPa | 0 mm | - | - | - |
| 1777156023 | 27.78° C | 8% | 1007.1 hPa | 0 mm | - | - | - |
| 1777155705 | 27.78° C | 8% | 1007.1 hPa | 0 mm | - | - | - |
| 1777155075 | 28.33° C | 7% | 1007.1 hPa | 0 mm | - | - | - |
| 1777154445 | 28.33° C | 4% | 1007.1 hPa | 0 mm | - | - | - |
| 1777153815 | 28.33° C | 3% | 1007.5 hPa | 0 mm | - | - | - |
| 1777152872 | 29.44° C | 1% | 1006.8 hPa | 0 mm | - | - | - |
| 1777140310 | 29.44° C | 2% | 1008.8 hPa | 0 mm | - | - | - |
| 1777139997 | 28.89° C | 5% | 1008.5 hPa | 0 mm | - | - | - |
| 1777138738 | 28.33° C | 12% | 1009.1 hPa | 0 mm | - | - | - |
| 1777136544 | 27.78° C | 14% | 1009.5 hPa | 0 mm | - | - | - |
| 1777136228 | 27.78° C | 15% | 1009.5 hPa | 0 mm | - | - | - |
| 1777133399 | 26.67° C | 24% | 1010.2 hPa | 0 mm | - | - | - |
| 1777132447 | 26.67° C | 29% | 1010.2 hPa | 0 mm | - | - | - |
* Rain latest hour (hover to see other rain measurements)
** Current wind speed in m/s (hover to see current wind gust speed)